YWLM/NTL METAR and TAF weather

Enter ICAO airport designator
Station Type Date Time Source
YWLM METAR 2020/09/18 17:30 UTC NOAA

YWLM 181730Z AUTO 00000KT 0400 // BKN015 14/14 Q1026


Station Type Date Time Source
YWLM Decoded METAR 2020/09/18 17:30 UTC NOAA

Station name not available
Sep 18, 2020 - 01:30 PM EDT / 2020.09.18 1730 UTC
Wind: Calm:0
Visibility: less than 1 mile:0
Sky conditions: mostly cloudy
Temperature: 57 F (14 C)
Dew Point: 57 F (14 C)
Relative Humidity: 100%
Pressure (altimeter): 30.30 in. Hg (1026 hPa)
ob: YWLM 181730Z AUTO 00000KT 0400 // BKN015 14/14 Q1026
cycle: 17

Station Type Date Time Source
YWLM TAF 2020/09/18 17:15 UTC NOAA

TAF TAF
AMD YWLM 181713Z 1817/1918 VRB03KT 9999 -SHRA FEW015
FM190000 07014KT 9999 NSW FEW035 INTER 1817/1900 4000 SHRA BKN012

Example: see airport list